sensor_id;sensor_type;location;lat;lon;timestamp;pressure;altitude;pressure_sealevel;temperature;humidity
76853;BME280;65825;52.232;10.566;2023-01-19T00:00:56;99272.03;;;-1.23;75.60
76853;BME280;65825;52.232;10.566;2023-01-19T00:03:21;99264.16;;;-1.08;75.46
76853;BME280;65825;52.232;10.566;2023-01-19T00:05:47;99264.09;;;-1.00;74.83
76853;BME280;65825;52.232;10.566;2023-01-19T00:08:12;99251.84;;;-0.85;75.33
76853;BME280;65825;52.232;10.566;2023-01-19T00:10:42;99260.44;;;-0.80;74.76
76853;BME280;65825;52.232;10.566;2023-01-19T00:13:08;99254.38;;;-0.79;74.81
76853;BME280;65825;52.232;10.566;2023-01-19T00:15:34;99269.84;;;-0.72;74.70
76853;BME280;65825;52.232;10.566;2023-01-19T00:17:59;99268.06;;;-0.63;74.00
76853;BME280;65825;52.232;10.566;2023-01-19T00:20:24;99267.25;;;-0.70;74.34
76853;BME280;65825;52.232;10.566;2023-01-19T00:22:50;99272.50;;;-0.74;74.90
76853;BME280;65825;52.232;10.566;2023-01-19T00:25:16;99278.59;;;-0.83;75.19
76853;BME280;65825;52.232;10.566;2023-01-19T00:27:41;99275.09;;;-0.76;74.84
76853;BME280;65825;52.232;10.566;2023-01-19T00:30:14;99262.97;;;-0.71;74.49
76853;BME280;65825;52.232;10.566;2023-01-19T00:32:39;99263.72;;;-0.63;74.22
76853;BME280;65825;52.232;10.566;2023-01-19T00:35:04;99259.41;;;-0.61;74.20
76853;BME280;65825;52.232;10.566;2023-01-19T00:37:30;99260.22;;;-0.59;74.27
76853;BME280;65825;52.232;10.566;2023-01-19T00:39:55;99255.84;;;-0.51;73.88
76853;BME280;65825;52.232;10.566;2023-01-19T00:42:20;99258.44;;;-0.52;74.13
76853;BME280;65825;52.232;10.566;2023-01-19T00:45:08;99253.19;;;-0.47;73.77
76853;BME280;65825;52.232;10.566;2023-01-19T00:47:34;99255.78;;;-0.47;74.23
76853;BME280;65825;52.232;10.566;2023-01-19T00:50:02;99262.81;;;-0.56;74.68
76853;BME280;65825;52.232;10.566;2023-01-19T00:52:27;99251.56;;;-0.57;74.53
76853;BME280;65825;52.232;10.566;2023-01-19T00:54:52;99251.56;;;-0.55;74.76
76853;BME280;65825;52.232;10.566;2023-01-19T00:57:17;99249.88;;;-0.57;74.67
76853;BME280;65825;52.232;10.566;2023-01-19T00:59:45;99245.50;;;-0.57;74.81
76853;BME280;65825;52.232;10.566;2023-01-19T01:02:11;99249.81;;;-0.55;74.62
76853;BME280;65825;52.232;10.566;2023-01-19T01:04:37;99251.56;;;-0.55;74.75
76853;BME280;65825;52.232;10.566;2023-01-19T01:07:03;99255.06;;;-0.61;75.14
76853;BME280;65825;52.232;10.566;2023-01-19T01:09:29;99254.19;;;-0.60;75.09
76853;BME280;65825;52.232;10.566;2023-01-19T01:11:54;99252.47;;;-0.59;75.31
76853;BME280;65825;52.232;10.566;2023-01-19T01:14:19;99247.25;;;-0.56;75.17
76853;BME280;65825;52.232;10.566;2023-01-19T01:16:45;99249.03;;;-0.61;75.47
76853;BME280;65825;52.232;10.566;2023-01-19T01:19:10;99253.25;;;-0.52;75.11
76853;BME280;65825;52.232;10.566;2023-01-19T01:21:37;99255.88;;;-0.54;75.39
76853;BME280;65825;52.232;10.566;2023-01-19T01:24:03;99253.44;;;-0.69;75.71
76853;BME280;65825;52.232;10.566;2023-01-19T01:26:28;99257.56;;;-0.50;75.24
76853;BME280;65825;52.232;10.566;2023-01-19T01:28:53;99261.81;;;-0.45;74.91
76853;BME280;65825;52.232;10.566;2023-01-19T01:31:18;99266.97;;;-0.43;74.54
76853;BME280;65825;52.232;10.566;2023-01-19T01:33:44;99257.56;;;-0.52;75.31
76853;BME280;65825;52.232;10.566;2023-01-19T01:36:10;99270.50;;;-0.50;74.92
76853;BME280;65825;52.232;10.566;2023-01-19T01:38:37;99266.97;;;-0.45;75.32
76853;BME280;65825;52.232;10.566;2023-01-19T01:41:02;99269.66;;;-0.52;75.62
76853;BME280;65825;52.232;10.566;2023-01-19T01:43:49;99263.50;;;-0.42;74.83
76853;BME280;65825;52.232;10.566;2023-01-19T01:46:16;99266.16;;;-0.50;75.13
76853;BME280;65825;52.232;10.566;2023-01-19T01:48:45;99261.06;;;-0.56;75.11
76853;BME280;65825;52.232;10.566;2023-01-19T01:51:18;99261.88;;;-0.51;75.16
76853;BME280;65825;52.232;10.566;2023-01-19T01:54:14;99266.16;;;-0.45;75.09
76853;BME280;65825;52.232;10.566;2023-01-19T01:56:44;99264.53;;;-0.55;75.37
76853;BME280;65825;52.232;10.566;2023-01-19T01:59:18;99270.59;;;-0.61;75.83
76853;BME280;65825;52.232;10.566;2023-01-19T02:01:51;99264.59;;;-0.64;75.89
76853;BME280;65825;52.232;10.566;2023-01-19T02:04:37;99267.13;;;-0.57;75.66
76853;BME280;65825;52.232;10.566;2023-01-19T02:07:04;99262.00;;;-0.64;75.87
76853;BME280;65825;52.232;10.566;2023-01-19T02:09:47;99269.78;;;-0.64;75.98
76853;BME280;65825;52.232;10.566;2023-01-19T02:12:31;99273.19;;;-0.56;75.56
76853;BME280;65825;52.232;10.566;2023-01-19T02:15:17;99278.31;;;-0.53;75.58
76853;BME280;65825;52.232;10.566;2023-01-19T02:17:44;99274.13;;;-0.66;76.15
76853;BME280;65825;52.232;10.566;2023-01-19T02:20:13;99285.38;;;-0.67;76.36
76853;BME280;65825;52.232;10.566;2023-01-19T02:22:48;99284.53;;;-0.71;76.17
76853;BME280;65825;52.232;10.566;2023-01-19T02:25:17;99282.81;;;-0.72;76.69
76853;BME280;65825;52.232;10.566;2023-01-19T02:27:43;99282.00;;;-0.77;76.56
76853;BME280;65825;52.232;10.566;2023-01-19T02:30:09;99288.88;;;-0.71;76.25
76853;BME280;65825;52.232;10.566;2023-01-19T02:32:35;99275.03;;;-0.72;76.46
76853;BME280;65825;52.232;10.566;2023-01-19T02:35:00;99281.13;;;-0.76;76.71
76853;BME280;65825;52.232;10.566;2023-01-19T02:37:30;99283.69;;;-0.69;76.38
76853;BME280;65825;52.232;10.566;2023-01-19T02:40:00;99279.31;;;-0.64;76.23
76853;BME280;65825;52.232;10.566;2023-01-19T02:42:29;99287.09;;;-0.66;76.34
76853;BME280;65825;52.232;10.566;2023-01-19T02:44:57;99270.72;;;-0.71;76.36
76853;BME280;65825;52.232;10.566;2023-01-19T02:47:22;99274.16;;;-0.69;76.17
76853;BME280;65825;52.232;10.566;2023-01-19T02:49:56;99280.09;;;-0.58;76.04
76853;BME280;65825;52.232;10.566;2023-01-19T02:52:22;99272.38;;;-0.61;75.96
76853;BME280;65825;52.232;10.566;2023-01-19T02:55:01;99270.59;;;-0.59;75.93
76853;BME280;65825;52.232;10.566;2023-01-19T02:58:05;99270.50;;;-0.50;75.59
76853;BME280;65825;52.232;10.566;2023-01-19T03:00:51;99260.97;;;-0.48;75.43
76853;BME280;65825;52.232;10.566;2023-01-19T03:06:14;99259.28;;;-0.52;75.66
76853;BME280;65825;52.232;10.566;2023-01-19T03:08:49;99244.53;;;-0.43;75.57
76853;BME280;65825;52.232;10.566;2023-01-19T03:11:17;99247.13;;;-0.44;75.67
76853;BME280;65825;52.232;10.566;2023-01-19T03:16:50;99240.25;;;-0.48;76.04
76853;BME280;65825;52.232;10.566;2023-01-19T03:19:22;99233.38;;;-0.52;76.01
76853;BME280;65825;52.232;10.566;2023-01-19T03:21:57;99238.50;;;-0.46;75.93
76853;BME280;65825;52.232;10.566;2023-01-19T03:24:24;99235.94;;;-0.49;76.05
76853;BME280;65825;52.232;10.566;2023-01-19T03:26:56;99233.28;;;-0.45;76.17
76853;BME280;65825;52.232;10.566;2023-01-19T03:29:27;99223.81;;;-0.46;75.93
76853;BME280;65825;52.232;10.566;2023-01-19T03:31:54;99247.19;;;-0.48;76.30
76853;BME280;65825;52.232;10.566;2023-01-19T03:34:22;99248.09;;;-0.54;76.44
76853;BME280;65825;52.232;10.566;2023-01-19T03:36:51;99245.50;;;-0.54;76.62
76853;BME280;65825;52.232;10.566;2023-01-19T03:39:22;99248.97;;;-0.55;76.68
76853;BME280;65825;52.232;10.566;2023-01-19T03:41:51;99266.31;;;-0.60;77.28
76853;BME280;65825;52.232;10.566;2023-01-19T03:44:18;99266.34;;;-0.64;77.13
76853;BME280;65825;52.232;10.566;2023-01-19T03:46:45;99264.59;;;-0.64;77.46
76853;BME280;65825;52.232;10.566;2023-01-19T03:49:11;99270.75;;;-0.73;77.49
76853;BME280;65825;52.232;10.566;2023-01-19T03:51:37;99267.19;;;-0.63;77.37
76853;BME280;65825;52.232;10.566;2023-01-19T03:54:04;99274.88;;;-0.55;77.19
76853;BME280;65825;52.232;10.566;2023-01-19T03:56:30;99263.72;;;-0.62;77.12
76853;BME280;65825;52.232;10.566;2023-01-19T03:58:55;99263.69;;;-0.58;77.20
76853;BME280;65825;52.232;10.566;2023-01-19T04:01:21;99251.56;;;-0.58;77.13
76853;BME280;65825;52.232;10.566;2023-01-19T04:03:47;99259.34;;;-0.58;77.17
76853;BME280;65825;52.232;10.566;2023-01-19T04:06:12;99259.34;;;-0.58;77.27
76853;BME280;65825;52.232;10.566;2023-01-19T04:08:38;99248.09;;;-0.54;76.89
76853;BME280;65825;52.232;10.566;2023-01-19T04:11:04;99244.59;;;-0.48;76.55
76853;BME280;65825;52.232;10.566;2023-01-19T04:13:30;99247.13;;;-0.44;76.88
76853;BME280;65825;52.232;10.566;2023-01-19T04:16:02;99249.72;;;-0.47;76.79
76853;BME280;65825;52.232;10.566;2023-01-19T04:18:29;99249.78;;;-0.52;76.75
76853;BME280;65825;52.232;10.566;2023-01-19T04:20:59;99273.13;;;-0.52;76.77
76853;BME280;65825;52.232;10.566;2023-01-19T04:23:24;99254.06;;;-0.46;76.72
76853;BME280;65825;52.232;10.566;2023-01-19T04:25:57;99255.94;;;-0.62;76.96
76853;BME280;65825;52.232;10.566;2023-01-19T04:28:23;99259.41;;;-0.64;77.35
76853;BME280;65825;52.232;10.566;2023-01-19T04:30:49;99262.00;;;-0.64;77.40
76853;BME280;65825;52.232;10.566;2023-01-19T04:33:15;99266.31;;;-0.63;77.40
76853;BME280;65825;52.232;10.566;2023-01-19T04:35:41;99271.53;;;-0.66;77.26
76853;BME280;65825;52.232;10.566;2023-01-19T04:38:06;99273.25;;;-0.65;77.71
76853;BME280;65825;52.232;10.566;2023-01-19T04:40:31;99267.25;;;-0.70;77.51
76853;BME280;65825;52.232;10.566;2023-01-19T04:42:56;99267.31;;;-0.76;77.99
76853;BME280;65825;52.232;10.566;2023-01-19T04:45:22;99268.22;;;-0.82;78.43
76853;BME280;65825;52.232;10.566;2023-01-19T04:47:49;99265.63;;;-0.78;78.03
76853;BME280;65825;52.232;10.566;2023-01-19T04:50:14;99275.09;;;-0.79;78.01
76853;BME280;65825;52.232;10.566;2023-01-19T04:52:40;99268.19;;;-0.77;77.99
76853;BME280;65825;52.232;10.566;2023-01-19T04:55:05;99259.63;;;-0.87;78.18
76853;BME280;65825;52.232;10.566;2023-01-19T04:57:31;99268.38;;;-0.98;78.69
76853;BME280;65825;52.232;10.566;2023-01-19T05:03:18;99267.44;;;-0.89;78.77
76853;BME280;65825;52.232;10.566;2023-01-19T05:05:44;99254.56;;;-0.95;79.12
76853;BME280;65825;52.232;10.566;2023-01-19T05:08:10;99258.03;;;-0.99;79.24
76853;BME280;65825;52.232;10.566;2023-01-19T05:10:35;99256.28;;;-0.96;79.10
76853;BME280;65825;52.232;10.566;2023-01-19T05:13:01;99245.09;;;-0.99;79.42
76853;BME280;65825;52.232;10.566;2023-01-19T05:15:26;99267.53;;;-1.00;79.58
76853;BME280;65825;52.232;10.566;2023-01-19T05:17:52;99265.75;;;-0.90;79.00
76853;BME280;65825;52.232;10.566;2023-01-19T05:20:17;99259.69;;;-0.93;79.46
76853;BME280;65825;52.232;10.566;2023-01-19T05:22:50;99269.22;;;-0.94;79.31
76853;BME280;65825;52.232;10.566;2023-01-19T05:25:16;99271.75;;;-0.87;78.68
76853;BME280;65825;52.232;10.566;2023-01-19T05:27:42;99270.81;;;-0.80;78.59
76853;BME280;65825;52.232;10.566;2023-01-19T05:30:07;99266.44;;;-0.75;78.11
76853;BME280;65825;52.232;10.566;2023-01-19T05:32:33;99276.81;;;-0.78;78.72
76853;BME280;65825;52.232;10.566;2023-01-19T05:34:58;99260.31;;;-0.65;77.91
76853;BME280;65825;52.232;10.566;2023-01-19T05:37:24;99273.25;;;-0.65;77.73
76853;BME280;65825;52.232;10.566;2023-01-19T05:39:49;99268.97;;;-0.66;77.93
76853;BME280;65825;52.232;10.566;2023-01-19T05:42:14;99261.19;;;-0.69;77.95
76853;BME280;65825;52.232;10.566;2023-01-19T05:44:41;99269.03;;;-0.75;78.10
76853;BME280;65825;52.232;10.566;2023-01-19T05:47:06;99271.69;;;-0.79;78.75
76853;BME280;65825;52.232;10.566;2023-01-19T05:49:31;99269.03;;;-0.73;78.27
76853;BME280;65825;52.232;10.566;2023-01-19T05:51:56;99274.22;;;-0.78;78.55
76853;BME280;65825;52.232;10.566;2023-01-19T05:54:22;99274.16;;;-0.71;78.76
76853;BME280;65825;52.232;10.566;2023-01-19T05:56:47;99268.16;;;-0.76;78.30
76853;BME280;65825;52.232;10.566;2023-01-19T05:59:13;99276.81;;;-0.75;78.33
76853;BME280;65825;52.232;10.566;2023-01-19T06:01:39;99275.13;;;-0.81;78.07
76853;BME280;65825;52.232;10.566;2023-01-19T06:04:06;99271.69;;;-0.79;78.42
76853;BME280;65825;52.232;10.566;2023-01-19T06:06:31;99264.69;;;-0.72;78.54
76853;BME280;65825;52.232;10.566;2023-01-19T06:08:56;99275.09;;;-0.74;78.68
76853;BME280;65825;52.232;10.566;2023-01-19T06:11:22;99272.44;;;-0.70;78.10
76853;BME280;65825;52.232;10.566;2023-01-19T06:13:47;99283.69;;;-0.71;78.17
76853;BME280;65825;52.232;10.566;2023-01-19T06:16:12;99277.69;;;-0.74;79.05
76853;BME280;65825;52.232;10.566;2023-01-19T06:18:38;99301.00;;;-0.76;79.10
76853;BME280;65825;52.232;10.566;2023-01-19T06:21:06;99277.63;;;-0.68;78.11
76853;BME280;65825;52.232;10.566;2023-01-19T06:23:33;99290.53;;;-0.66;78.14
76853;BME280;65825;52.232;10.566;2023-01-19T06:25:58;99291.38;;;-0.63;78.12
76853;BME280;65825;52.232;10.566;2023-01-19T06:28:24;99297.41;;;-0.60;78.04
76853;BME280;65825;52.232;10.566;2023-01-19T06:30:52;99296.56;;;-0.65;78.22
76853;BME280;65825;52.232;10.566;2023-01-19T06:33:18;99299.22;;;-0.73;78.62
76853;BME280;65825;52.232;10.566;2023-01-19T06:35:45;99315.66;;;-0.72;78.46
76853;BME280;65825;52.232;10.566;2023-01-19T06:38:11;99312.13;;;-0.63;78.39
76853;BME280;65825;52.232;10.566;2023-01-19T06:40:38;99316.31;;;-0.52;77.93
76853;BME280;65825;52.232;10.566;2023-01-19T06:43:04;99311.09;;;-0.46;77.93
76853;BME280;65825;52.232;10.566;2023-01-19T06:45:30;99316.13;;;-0.31;77.14
76853;BME280;65825;52.232;10.566;2023-01-19T06:47:55;99324.69;;;-0.26;76.99
76853;BME280;65825;52.232;10.566;2023-01-19T06:50:20;99321.16;;;-0.19;76.27
76853;BME280;65825;52.232;10.566;2023-01-19T06:52:49;99316.75;;;-0.11;76.40
76853;BME280;65825;52.232;10.566;2023-01-19T06:55:15;99328.72;;;0.02;75.74
76853;BME280;65825;52.232;10.566;2023-01-19T06:57:41;99331.31;;;-0.01;75.82
76853;BME280;65825;52.232;10.566;2023-01-19T07:00:07;99340.03;;;-0.05;75.90
76853;BME280;65825;52.232;10.566;2023-01-19T07:02:36;99341.78;;;-0.07;76.22
76853;BME280;65825;52.232;10.566;2023-01-19T07:05:02;99337.41;;;-0.02;76.06
76853;BME280;65825;52.232;10.566;2023-01-19T07:07:27;99346.81;;;0.06;75.86
76853;BME280;65825;52.232;10.566;2023-01-19T07:09:52;99341.63;;;0.05;75.75
76853;BME280;65825;52.232;10.566;2023-01-19T07:12:18;99345.16;;;0.01;75.91
76853;BME280;65825;52.232;10.566;2023-01-19T07:14:43;99356.38;;;0.01;76.13
76853;BME280;65825;52.232;10.566;2023-01-19T07:17:08;99338.22;;;0.01;76.14
76853;BME280;65825;52.232;10.566;2023-01-19T07:19:34;99340.88;;;-0.05;76.56
76853;BME280;65825;52.232;10.566;2023-01-19T07:22:00;99343.41;;;0.01;75.97
76853;BME280;65825;52.232;10.566;2023-01-19T07:24:27;99344.22;;;0.06;75.86
76853;BME280;65825;52.232;10.566;2023-01-19T07:26:52;99351.22;;;0.00;76.04
76853;BME280;65825;52.232;10.566;2023-01-19T07:29:17;99365.84;;;0.08;75.75
76853;BME280;65825;52.232;10.566;2023-01-19T07:31:42;99361.44;;;0.13;75.64
76853;BME280;65825;52.232;10.566;2023-01-19T07:34:08;99358.63;;;0.30;75.03
76853;BME280;65825;52.232;10.566;2023-01-19T07:36:33;99362.84;;;0.40;74.85
76853;BME280;65825;52.232;10.566;2023-01-19T07:38:59;99362.75;;;0.47;74.39
76853;BME280;65825;52.232;10.566;2023-01-19T07:41:25;99352.38;;;0.47;74.09
76853;BME280;65825;52.232;10.566;2023-01-19T07:43:50;99366.13;;;0.55;73.82
76853;BME280;65825;52.232;10.566;2023-01-19T07:46:16;99362.09;;;0.32;74.25
76853;BME280;65825;52.232;10.566;2023-01-19T07:48:42;99365.66;;;0.22;75.02
76853;BME280;65825;52.232;10.566;2023-01-19T07:51:09;99363.88;;;0.27;74.61
76853;BME280;65825;52.232;10.566;2023-01-19T07:53:41;99369.97;;;0.24;74.58
76853;BME280;65825;52.232;10.566;2023-01-19T07:56:07;99364.81;;;0.20;74.98
76853;BME280;65825;52.232;10.566;2023-01-19T07:58:33;99373.44;;;0.22;74.95
76853;BME280;65825;52.232;10.566;2023-01-19T08:00:58;99375.78;;;0.43;74.13
76853;BME280;65825;52.232;10.566;2023-01-19T08:03:24;99374.03;;;0.45;73.86
76853;BME280;65825;52.232;10.566;2023-01-19T08:05:50;99367.56;;;0.74;72.64
76853;BME280;65825;52.232;10.566;2023-01-19T08:08:16;99361.94;;;1.06;72.03
76853;BME280;65825;52.232;10.566;2023-01-19T08:10:42;99361.13;;;1.04;71.53
76853;BME280;65825;52.232;10.566;2023-01-19T08:13:07;99367.00;;;1.16;71.34
76853;BME280;65825;52.232;10.566;2023-01-19T08:15:32;99369.31;;;1.33;70.28
76853;BME280;65825;52.232;10.566;2023-01-19T08:18:00;99369.88;;;1.51;70.20
76853;BME280;65825;52.232;10.566;2023-01-19T08:20:27;99361.81;;;1.66;69.96
76853;BME280;65825;52.232;10.566;2023-01-19T08:22:53;99360.53;;;1.88;69.69
76853;BME280;65825;52.232;10.566;2023-01-19T08:25:36;99364.69;;;1.98;69.85
76853;BME280;65825;52.232;10.566;2023-01-19T08:28:04;99361.94;;;2.07;68.72
76853;BME280;65825;52.232;10.566;2023-01-19T08:30:30;99349.78;;;2.08;67.42
76853;BME280;65825;52.232;10.566;2023-01-19T08:32:56;99364.63;;;2.03;68.09
76853;BME280;65825;52.232;10.566;2023-01-19T08:35:31;99366.84;;;1.75;69.22
76853;BME280;65825;52.232;10.566;2023-01-19T08:38:00;99365.31;;;1.65;69.73
76853;BME280;65825;52.232;10.566;2023-01-19T08:40:29;99364.97;;;1.83;69.02
76853;BME280;65825;52.232;10.566;2023-01-19T08:42:58;99367.13;;;2.07;68.37
76853;BME280;65825;52.232;10.566;2023-01-19T08:45:25;99372.22;;;2.13;68.31
76853;BME280;65825;52.232;10.566;2023-01-19T08:47:53;99364.13;;;2.27;67.81
76853;BME280;65825;52.232;10.566;2023-01-19T08:50:19;99361.22;;;2.43;66.54
76853;BME280;65825;52.232;10.566;2023-01-19T08:52:44;99364.25;;;2.65;66.38
76853;BME280;65825;52.232;10.566;2023-01-19T08:55:09;99367.28;;;2.85;65.18
76853;BME280;65825;52.232;10.566;2023-01-19T08:57:35;99361.72;;;3.00;65.29
76853;BME280;65825;52.232;10.566;2023-01-19T09:00:01;99364.84;;;3.15;64.47
76853;BME280;65825;52.232;10.566;2023-01-19T09:02:26;99362.56;;;2.62;65.61
76853;BME280;65825;52.232;10.566;2023-01-19T09:04:51;99363.41;;;2.20;66.60
76853;BME280;65825;52.232;10.566;2023-01-19T09:07:17;99369.84;;;2.01;67.67
76853;BME280;65825;52.232;10.566;2023-01-19T09:09:42;99374.00;;;2.11;67.67
76853;BME280;65825;52.232;10.566;2023-01-19T09:12:08;99366.88;;;2.21;67.37
76853;BME280;65825;52.232;10.566;2023-01-19T09:14:33;99357.19;;;2.29;67.97
76853;BME280;65825;52.232;10.566;2023-01-19T09:16:58;99369.91;;;2.83;66.60
76853;BME280;65825;52.232;10.566;2023-01-19T09:19:23;99368.78;;;2.95;64.70
76853;BME280;65825;52.232;10.566;2023-01-19T09:21:49;99369.13;;;2.80;65.11
76853;BME280;65825;52.232;10.566;2023-01-19T09:24:14;99375.56;;;2.64;65.69
76853;BME280;65825;52.232;10.566;2023-01-19T09:26:40;99375.72;;;2.56;66.43
76853;BME280;65825;52.232;10.566;2023-01-19T09:29:05;99384.50;;;2.51;66.25
76853;BME280;65825;52.232;10.566;2023-01-19T09:31:30;99386.75;;;3.07;64.25
76853;BME280;65825;52.232;10.566;2023-01-19T09:33:56;99402.41;;;3.78;62.20
76853;BME280;65825;52.232;10.566;2023-01-19T09:36:21;99391.91;;;3.46;62.82
76853;BME280;65825;52.232;10.566;2023-01-19T09:38:46;99390.69;;;3.61;62.88
76853;BME280;65825;52.232;10.566;2023-01-19T09:41:18;99389.28;;;3.48;62.69
76853;BME280;65825;52.232;10.566;2023-01-19T09:43:50;99382.78;;;2.91;64.29
76853;BME280;65825;52.232;10.566;2023-01-19T09:46:26;99373.75;;;2.66;65.43
76853;BME280;65825;52.232;10.566;2023-01-19T09:48:54;99370.69;;;2.47;66.12
76853;BME280;65825;52.232;10.566;2023-01-19T09:51:28;99372.56;;;2.39;67.08
76853;BME280;65825;52.232;10.566;2023-01-19T09:54:14;99375.25;;;2.36;67.27
76853;BME280;65825;52.232;10.566;2023-01-19T09:56:42;99385.56;;;2.41;67.01
76853;BME280;65825;52.232;10.566;2023-01-19T10:04:38;99396.75;;;2.87;65.23
76853;BME280;65825;52.232;10.566;2023-01-19T10:13:24;99394.34;;;2.78;66.30
76853;BME280;65825;52.232;10.566;2023-01-19T10:15:47;99391.91;;;2.70;67.17
76853;BME280;65825;52.232;10.566;2023-01-19T10:18:20;99394.47;;;2.72;67.04
76853;BME280;65825;52.232;10.566;2023-01-19T10:20:55;99390.25;;;2.66;67.06
76853;BME280;65825;52.232;10.566;2023-01-19T10:23:33;99393.38;;;2.83;66.67
76853;BME280;65825;52.232;10.566;2023-01-19T10:26:05;99397.78;;;2.80;66.33
76853;BME280;65825;52.232;10.566;2023-01-19T10:28:32;99401.78;;;2.96;66.13
76853;BME280;65825;52.232;10.566;2023-01-19T10:30:57;99397.66;;;3.24;65.90
76853;BME280;65825;52.232;10.566;2023-01-19T10:33:23;99395.59;;;3.38;65.00
76853;BME280;65825;52.232;10.566;2023-01-19T10:35:48;99388.72;;;3.34;64.80
76853;BME280;65825;52.232;10.566;2023-01-19T10:38:15;99394.13;;;2.88;66.13
76853;BME280;65825;52.232;10.566;2023-01-19T10:40:55;99395.06;;;2.86;66.98
76853;BME280;65825;52.232;10.566;2023-01-19T10:46:01;99386.44;;;2.41;68.40
76853;BME280;65825;52.232;10.566;2023-01-19T10:48:36;99389.16;;;2.35;69.03
76853;BME280;65825;52.232;10.566;2023-01-19T10:51:03;99387.53;;;2.30;68.90
76853;BME280;65825;52.232;10.566;2023-01-19T10:53:29;99392.91;;;2.19;69.64
76853;BME280;65825;52.232;10.566;2023-01-19T10:56:20;99408.66;;;2.13;69.97
76853;BME280;65825;52.232;10.566;2023-01-19T10:58:46;99394.06;;;2.05;70.37
76853;BME280;65825;52.232;10.566;2023-01-19T11:01:23;99399.16;;;2.11;70.59
76853;BME280;65825;52.232;10.566;2023-01-19T11:03:49;99402.19;;;2.35;70.07
76853;BME280;65825;52.232;10.566;2023-01-19T11:08:42;99390.41;;;2.15;70.72
76853;BME280;65825;52.232;10.566;2023-01-19T11:11:08;99400.41;;;2.36;70.21
76853;BME280;65825;52.232;10.566;2023-01-19T11:13:35;99397.00;;;2.34;70.88
76853;BME280;65825;52.232;10.566;2023-01-19T11:18:34;99396.91;;;2.38;70.92
76853;BME280;65825;52.232;10.566;2023-01-19T11:21:02;99401.03;;;2.48;70.65
76853;BME280;65825;52.232;10.566;2023-01-19T11:23:33;99398.47;;;2.47;70.44
76853;BME280;65825;52.232;10.566;2023-01-19T11:26:01;99414.69;;;3.02;69.03
76853;BME280;65825;52.232;10.566;2023-01-19T11:28:33;99405.25;;;3.34;67.57
76853;BME280;65825;52.232;10.566;2023-01-19T11:31:02;99400.22;;;3.62;66.57
76853;BME280;65825;52.232;10.566;2023-01-19T11:33:42;99404.16;;;3.44;67.83
76853;BME280;65825;52.232;10.566;2023-01-19T11:36:18;99406.66;;;3.11;68.70
76853;BME280;65825;52.232;10.566;2023-01-19T11:38:47;99402.16;;;2.78;70.70
76853;BME280;65825;52.232;10.566;2023-01-19T11:41:34;99406.25;;;2.48;71.26
76853;BME280;65825;52.232;10.566;2023-01-19T11:44:17;99395.41;;;2.69;70.99
76853;BME280;65825;52.232;10.566;2023-01-19T11:46:45;99404.72;;;2.81;71.05
76853;BME280;65825;52.232;10.566;2023-01-19T11:49:20;99418.50;;;2.86;70.61
76853;BME280;65825;52.232;10.566;2023-01-19T11:52:06;99408.13;;;2.83;71.39
76853;BME280;65825;52.232;10.566;2023-01-19T11:55:38;99398.66;;;2.79;70.74
76853;BME280;65825;52.232;10.566;2023-01-19T11:57:31;99404.38;;;2.56;71.59
76853;BME280;65825;52.232;10.566;2023-01-19T11:59:58;99401.00;;;2.51;72.15
76853;BME280;65825;52.232;10.566;2023-01-19T12:02:32;99412.66;;;2.31;73.07
76853;BME280;65825;52.232;10.566;2023-01-19T12:05:11;99413.53;;;2.31;73.45
76853;BME280;65825;52.232;10.566;2023-01-19T12:07:37;99407.59;;;2.25;73.71
76853;BME280;65825;52.232;10.566;2023-01-19T12:10:26;99406.75;;;2.23;73.82
76853;BME280;65825;52.232;10.566;2023-01-19T12:12:52;99405.72;;;2.31;73.96
76853;BME280;65825;52.232;10.566;2023-01-19T12:15:25;99401.59;;;2.20;74.67
76853;BME280;65825;52.232;10.566;2023-01-19T12:17:57;99413.72;;;2.21;75.43
76853;BME280;65825;52.232;10.566;2023-01-19T12:20:30;99407.56;;;2.26;75.89
76853;BME280;65825;52.232;10.566;2023-01-19T12:23:27;99413.50;;;2.33;75.89
76853;BME280;65825;52.232;10.566;2023-01-19T12:26:33;99412.97;;;2.60;74.97
76853;BME280;65825;52.232;10.566;2023-01-19T12:29:04;99411.91;;;2.68;74.40
76853;BME280;65825;52.232;10.566;2023-01-19T12:31:30;99407.53;;;2.70;73.78
76853;BME280;65825;52.232;10.566;2023-01-19T12:34:26;99416.78;;;2.85;73.27
76853;BME280;65825;52.232;10.566;2023-01-19T12:37:02;99417.25;;;3.03;72.23
76853;BME280;65825;52.232;10.566;2023-01-19T12:39:28;99420.78;;;3.01;73.34
76853;BME280;65825;52.232;10.566;2023-01-19T12:42:23;99420.94;;;2.93;73.08
76853;BME280;65825;52.232;10.566;2023-01-19T12:45:03;99420.69;;;3.04;72.73
76853;BME280;65825;52.232;10.566;2023-01-19T12:47:29;99426.31;;;2.86;73.10
76853;BME280;65825;52.232;10.566;2023-01-19T12:49:56;99421.09;;;2.87;73.06
76853;BME280;65825;52.232;10.566;2023-01-19T12:52:38;99439.19;;;2.93;73.10
76853;BME280;65825;52.232;10.566;2023-01-19T12:57:40;99439.22;;;2.92;73.06
76853;BME280;65825;52.232;10.566;2023-01-19T13:00:40;99446.41;;;2.81;73.56
76853;BME280;65825;52.232;10.566;2023-01-19T13:13:36;99441.84;;;3.30;72.68
76853;BME280;65825;52.232;10.566;2023-01-19T13:18:47;99441.59;;;3.02;73.93
76853;BME280;65825;52.232;10.566;2023-01-19T13:21:36;99447.03;;;2.92;75.74
76853;BME280;65825;52.232;10.566;2023-01-19T13:26:35;99449.94;;;2.78;77.46
76853;BME280;65825;52.232;10.566;2023-01-19T13:31:43;99454.69;;;2.58;78.38
76853;BME280;65825;52.232;10.566;2023-01-19T13:34:10;99458.50;;;2.39;80.06
76853;BME280;65825;52.232;10.566;2023-01-19T13:36:42;99456.56;;;2.50;79.68
76853;BME280;65825;52.232;10.566;2023-01-19T13:41:43;99468.34;;;2.24;80.74
76853;BME280;65825;52.232;10.566;2023-01-19T13:44:17;99475.31;;;2.22;81.16
76853;BME280;65825;52.232;10.566;2023-01-19T13:46:45;99477.19;;;2.15;81.53
76853;BME280;65825;52.232;10.566;2023-01-19T13:49:16;99474.41;;;2.24;81.62
76853;BME280;65825;52.232;10.566;2023-01-19T13:51:43;99474.53;;;2.17;82.18
76853;BME280;65825;52.232;10.566;2023-01-19T13:54:15;99474.88;;;1.97;82.70
76853;BME280;65825;52.232;10.566;2023-01-19T13:56:46;99493.00;;;2.03;83.48